createdAt,value
2017-01-19T16:42:28.320Z,1015.1
2017-01-19T16:42:49.624Z,1015
2017-01-19T16:43:10.915Z,1015.1
2017-01-19T16:43:32.202Z,1015.1
2017-01-19T16:43:53.501Z,1015.1
2017-01-19T16:44:14.804Z,1015
2017-01-19T16:44:36.093Z,1015.1
2017-01-19T16:44:57.368Z,1015.1
2017-01-19T16:45:18.665Z,1015.1
2017-01-19T16:45:39.963Z,1015.1
2017-01-19T16:46:01.270Z,1015.2
2017-01-19T16:46:22.571Z,1015.1
2017-01-19T16:46:43.884Z,1015.1
2017-01-19T16:47:05.200Z,1015.1
2017-01-19T16:47:26.509Z,1015.1
2017-01-19T16:47:47.903Z,1015.1
2017-01-19T16:48:09.240Z,1015.1
2017-01-19T16:48:30.525Z,1015
2017-01-19T16:48:51.901Z,1015.1
2017-01-19T16:49:13.206Z,1015
2017-01-19T16:49:34.481Z,1015
2017-01-19T16:49:55.772Z,1015
2017-01-19T16:50:17.599Z,1015
2017-01-19T16:50:38.886Z,1015
2017-01-19T16:51:00.189Z,1015
2017-01-19T16:51:21.514Z,1015
2017-01-19T16:51:42.823Z,1015
2017-01-19T16:52:04.150Z,1015
2017-01-19T16:52:25.441Z,1015
2017-01-19T16:52:46.743Z,1015.1
2017-01-19T16:53:08.051Z,1015.1
2017-01-19T16:53:29.347Z,1015.1
2017-01-19T16:53:50.642Z,1015
2017-01-19T16:54:11.998Z,1015
2017-01-19T16:54:33.288Z,1015.1
2017-01-19T16:54:54.576Z,1015
2017-01-19T16:55:15.921Z,1015.1
2017-01-19T16:55:37.247Z,1015
2017-01-19T16:55:58.533Z,1015.1
2017-01-19T16:56:19.830Z,1015
2017-01-19T16:56:41.144Z,1015.1
2017-01-19T16:57:02.493Z,1015.1
2017-01-19T16:57:23.791Z,1015.1
2017-01-19T16:57:45.110Z,1015
2017-01-19T16:58:06.403Z,1015.1
2017-01-19T16:58:27.703Z,1015.1
2017-01-19T16:58:49.015Z,1015.1
2017-01-19T16:59:10.312Z,1015.1
2017-01-19T16:59:31.621Z,1015.1
2017-01-19T16:59:52.914Z,1015
2017-01-19T17:00:14.240Z,1015.1
2017-01-19T17:00:35.597Z,1015
2017-01-19T17:00:56.933Z,1015.1
2017-01-19T17:01:18.247Z,1015.1
2017-01-19T17:01:39.545Z,1015.1
2017-01-19T17:02:00.840Z,1015.1
2017-01-19T17:02:22.157Z,1015.1
2017-01-19T17:02:43.475Z,1015.1
2017-01-19T17:03:04.777Z,1015.1
2017-01-19T17:03:26.189Z,1015.1
2017-01-19T17:03:47.484Z,1015.1
2017-01-19T17:04:08.779Z,1015.1
2017-01-19T17:04:30.075Z,1015.1
2017-01-19T17:04:51.379Z,1015.1
2017-01-19T17:05:12.696Z,1015.1
2017-01-19T17:05:33.987Z,1015.1
2017-01-19T17:05:55.280Z,1015.1
2017-01-19T17:06:16.605Z,1015.1
2017-01-19T17:06:37.888Z,1015.1
2017-01-19T17:06:59.184Z,1015.1
2017-01-19T17:07:20.494Z,1015.1
2017-01-19T17:07:41.866Z,1015
2017-01-19T17:08:03.159Z,1015.1
2017-01-19T17:08:24.424Z,1015.1
2017-01-19T17:08:46.057Z,1015.1
2017-01-19T17:09:07.365Z,1015.1
2017-01-19T17:09:28.671Z,1015
2017-01-19T17:09:49.986Z,1015.1
2017-01-19T17:10:11.284Z,1015.1
2017-01-19T17:10:32.582Z,1015.1
2017-01-19T17:10:53.860Z,1015.1
2017-01-19T17:11:15.153Z,1015.1
2017-01-19T17:11:36.477Z,1015.1
2017-01-19T17:11:57.786Z,1015.1
2017-01-19T17:12:19.259Z,1015.1
2017-01-19T17:12:40.560Z,1015.1
2017-01-19T17:13:01.842Z,1015.1
2017-01-19T17:13:23.119Z,1015.2
2017-01-19T17:13:44.449Z,1015.2
2017-01-19T17:14:05.751Z,1015.1
2017-01-19T17:14:27.043Z,1015.1
2017-01-19T17:14:48.348Z,1015.1
2017-01-19T17:15:09.654Z,1015.1
2017-01-19T17:15:30.947Z,1015.1
2017-01-19T17:15:52.241Z,1015.1
2017-01-19T17:16:13.539Z,1015.1
2017-01-19T17:16:34.838Z,1015.1
2017-01-19T17:16:56.134Z,1015.1
2017-01-19T17:17:17.419Z,1015.1
2017-01-19T17:17:38.733Z,1015.1
2017-01-19T17:18:00.061Z,1015.1
2017-01-19T17:18:21.348Z,1015.2
2017-01-19T17:18:42.643Z,1015.1
2017-01-19T17:19:04.554Z,1015.1
2017-01-19T17:19:25.852Z,1015.2
2017-01-19T17:19:47.146Z,1015.1
2017-01-19T17:20:08.444Z,1015.2
2017-01-19T17:20:29.738Z,1015.2
2017-01-19T17:20:51.020Z,1015.2
2017-01-19T17:21:12.332Z,1015.1
2017-01-19T17:21:33.619Z,1015.2
2017-01-19T17:21:54.958Z,1015.2
2017-01-19T17:22:16.251Z,1015.2
2017-01-19T17:22:37.526Z,1015.2
2017-01-19T17:22:58.814Z,1015.2
2017-01-19T17:23:20.120Z,1015.2
2017-01-19T17:23:41.409Z,1015.3
2017-01-19T17:24:02.714Z,1015.3
2017-01-19T17:24:24.000Z,1015.3
2017-01-19T17:24:45.290Z,1015.3
2017-01-19T17:25:06.621Z,1015.3
2017-01-19T17:25:27.930Z,1015.2
2017-01-19T17:25:49.205Z,1015.2
2017-01-19T17:26:10.504Z,1015.3
2017-01-19T17:26:31.791Z,1015.2
2017-01-19T17:26:53.090Z,1015.2
2017-01-19T17:27:14.391Z,1015.2
2017-01-19T17:27:35.678Z,1015.2
2017-01-19T17:27:56.974Z,1015.2
2017-01-19T17:28:18.276Z,1015.2
2017-01-19T17:28:39.594Z,1015.2
2017-01-19T17:29:00.893Z,1015.2
2017-01-19T17:29:22.202Z,1015.2
2017-01-19T17:29:43.488Z,1015.3
2017-01-19T17:30:04.835Z,1015.3
2017-01-19T17:30:26.128Z,1015.3
2017-01-19T17:30:47.420Z,1015.3
2017-01-19T17:31:08.722Z,1015.3
2017-01-19T17:31:30.011Z,1015.3
2017-01-19T17:31:51.295Z,1015.3
2017-01-19T17:32:12.584Z,1015.3
2017-01-19T17:32:33.859Z,1015.3
2017-01-19T17:32:55.145Z,1015.3
2017-01-19T17:33:16.468Z,1015.3
2017-01-19T17:33:37.761Z,1015.2
2017-01-19T17:33:59.067Z,1015.2
2017-01-19T17:34:20.359Z,1015.2
2017-01-19T17:34:41.636Z,1015.2
2017-01-19T17:35:02.922Z,1015.2
2017-01-19T17:35:24.229Z,1015.2
2017-01-19T17:35:45.511Z,1015.3
2017-01-19T17:36:06.804Z,1015.3
2017-01-19T17:36:28.105Z,1015.3
2017-01-19T17:36:49.394Z,1015.3
2017-01-19T17:37:10.689Z,1015.2
2017-01-19T17:37:32.005Z,1015.3
2017-01-19T17:37:53.286Z,1015.3
2017-01-19T17:38:14.633Z,1015.3
2017-01-19T17:38:35.941Z,1015.3
2017-01-19T17:38:57.227Z,1015.3
2017-01-19T17:39:18.522Z,1015.3
2017-01-19T17:39:39.815Z,1015.3
2017-01-19T17:40:01.105Z,1015.3
2017-01-19T17:40:22.401Z,1015.3
2017-01-19T17:40:43.683Z,1015.3
2017-01-19T17:41:04.984Z,1015.3
2017-01-19T17:41:26.300Z,1015.3
2017-01-19T17:41:47.594Z,1015.3
2017-01-19T17:42:08.944Z,1015.3
2017-01-19T17:42:30.232Z,1015.3
2017-01-19T17:42:51.543Z,1015.3
2017-01-19T17:43:12.854Z,1015.3
2017-01-19T17:43:34.154Z,1015.3
2017-01-19T17:43:55.441Z,1015.3
2017-01-19T17:44:16.735Z,1015.3
2017-01-19T17:44:38.040Z,1015.3
2017-01-19T17:44:59.366Z,1015.3
2017-01-19T17:45:20.656Z,1015.3
2017-01-19T17:45:41.948Z,1015.3
2017-01-19T17:46:03.283Z,1015.3
2017-01-19T17:46:24.594Z,1015.3
2017-01-19T17:46:45.896Z,1015.3
2017-01-19T17:47:07.235Z,1015.3
2017-01-19T17:47:28.524Z,1015.3
2017-01-19T17:47:49.818Z,1015.3
2017-01-19T17:48:11.103Z,1015.3
2017-01-19T17:48:32.406Z,1015.3
2017-01-19T17:48:53.717Z,1015.4
2017-01-19T17:49:15.014Z,1015.4
2017-01-19T17:49:36.307Z,1015.4
2017-01-19T17:49:57.611Z,1015.4
2017-01-19T17:50:18.887Z,1015.4
2017-01-19T17:50:40.196Z,1015.4
2017-01-19T17:51:01.481Z,1015.4
2017-01-19T17:51:22.776Z,1015.4
2017-01-19T17:51:44.091Z,1015.4
2017-01-19T17:52:05.405Z,1015.4
2017-01-19T17:52:26.706Z,1015.4
2017-01-19T17:52:47.988Z,1015.4
2017-01-19T17:53:09.356Z,1015.4
2017-01-19T17:53:30.650Z,1015.4
2017-01-19T17:53:51.956Z,1015.4
2017-01-19T17:54:13.246Z,1015.4
2017-01-19T17:54:34.542Z,1015.5
2017-01-19T17:54:55.831Z,1015.4
2017-01-19T17:55:17.123Z,1015.4
2017-01-19T17:55:38.425Z,1015.5
2017-01-19T17:55:59.758Z,1015.5
2017-01-19T17:56:21.058Z,1015.5
2017-01-19T17:56:42.346Z,1015.5
2017-01-19T17:57:03.651Z,1015.5
2017-01-19T17:57:24.948Z,1015.5
2017-01-19T17:57:46.246Z,1015.5
2017-01-19T17:58:07.528Z,1015.6
2017-01-19T17:58:28.831Z,1015.5
2017-01-19T17:58:50.124Z,1015.5
2017-01-19T17:59:11.414Z,1015.5
2017-01-19T17:59:32.715Z,1015.5
2017-01-19T17:59:54.023Z,1015.5
2017-01-19T18:00:15.325Z,1015.5
2017-01-19T18:00:36.604Z,1015.5
2017-01-19T18:00:57.911Z,1015.6
2017-01-19T18:01:19.230Z,1015.6
2017-01-19T18:01:40.531Z,1015.6
2017-01-19T18:02:01.825Z,1015.6
2017-01-19T18:02:23.110Z,1015.6
2017-01-19T18:02:44.403Z,1015.6
2017-01-19T18:03:05.723Z,1015.6
2017-01-19T18:03:27.019Z,1015.6
2017-01-19T18:03:48.331Z,1015.6
2017-01-19T18:04:09.612Z,1015.6
2017-01-19T18:04:30.894Z,1015.6
2017-01-19T18:04:52.179Z,1015.5
2017-01-19T18:05:13.473Z,1015.5
2017-01-19T18:05:35.063Z,1015.5
2017-01-19T18:05:56.345Z,1015.5
2017-01-19T18:06:17.626Z,1015.5
2017-01-19T18:06:38.919Z,1015.5
2017-01-19T18:07:00.209Z,1015.4
2017-01-19T18:07:21.506Z,1015.5
2017-01-19T18:07:42.826Z,1015.4
2017-01-19T18:08:04.109Z,1015.4
2017-01-19T18:08:25.415Z,1015.4
2017-01-19T18:08:46.711Z,1015.5
2017-01-19T18:09:08.030Z,1015.4
2017-01-19T18:09:29.347Z,1015.5
2017-01-19T18:09:50.633Z,1015.5
2017-01-19T18:10:11.930Z,1015.5
2017-01-19T18:10:33.241Z,1015.5
2017-01-19T18:10:54.529Z,1015.5
2017-01-19T18:11:15.832Z,1015.5
2017-01-19T18:11:37.116Z,1015.5
2017-01-19T18:11:58.411Z,1015.5
2017-01-19T18:12:19.704Z,1015.5
2017-01-19T18:12:40.996Z,1015.5
2017-01-19T18:13:02.287Z,1015.5
2017-01-19T18:13:23.576Z,1015.5
2017-01-19T18:13:44.853Z,1015.5
2017-01-19T18:14:06.170Z,1015.5
2017-01-19T18:14:27.459Z,1015.5
2017-01-19T18:14:48.743Z,1015.5
2017-01-19T18:15:10.048Z,1015.5
2017-01-19T18:15:31.369Z,1015.5
2017-01-19T18:15:52.662Z,1015.5
2017-01-19T18:16:13.959Z,1015.5
2017-01-19T18:16:35.252Z,1015.5
2017-01-19T18:16:56.538Z,1015.5
2017-01-19T18:17:17.847Z,1015.5
2017-01-19T18:17:39.422Z,1015.6
2017-01-19T18:18:00.926Z,1015.6
2017-01-19T18:18:22.235Z,1015.6
2017-01-19T18:18:43.534Z,1015.6
2017-01-19T18:19:04.838Z,1015.6
2017-01-19T18:19:26.147Z,1015.6
2017-01-19T18:19:47.457Z,1015.6
2017-01-19T18:20:08.751Z,1015.6
2017-01-19T18:20:30.048Z,1015.6
2017-01-19T18:20:51.339Z,1015.6
2017-01-19T18:21:12.628Z,1015.6
2017-01-19T18:21:33.921Z,1015.6
2017-01-19T18:21:55.242Z,1015.6
2017-01-19T18:22:16.535Z,1015.6
2017-01-19T18:22:37.833Z,1015.6
2017-01-19T18:22:59.135Z,1015.6
2017-01-19T18:23:20.425Z,1015.6
2017-01-19T18:23:41.711Z,1015.6
2017-01-19T18:24:03.002Z,1015.6
2017-01-19T18:24:24.323Z,1015.6
2017-01-19T18:24:45.643Z,1015.6
2017-01-19T18:25:06.933Z,1015.6
2017-01-19T18:25:28.221Z,1015.6
2017-01-19T18:25:49.495Z,1015.5
2017-01-19T18:26:10.795Z,1015.5
2017-01-19T18:26:32.083Z,1015.5
2017-01-19T18:26:53.356Z,1015.5
2017-01-19T18:27:14.647Z,1015.5
2017-01-19T18:27:35.936Z,1015.5
2017-01-19T18:27:57.241Z,1015.5
2017-01-19T18:28:18.518Z,1015.5
2017-01-19T18:28:39.807Z,1015.5
2017-01-19T18:29:01.100Z,1015.5
2017-01-19T18:29:22.402Z,1015.5
2017-01-19T18:29:43.721Z,1015.5
2017-01-19T18:30:05.052Z,1015.5
2017-01-19T18:30:26.355Z,1015.6
2017-01-19T18:30:47.653Z,1015.5
2017-01-19T18:31:08.938Z,1015.5
2017-01-19T18:31:30.266Z,1015.5
2017-01-19T18:31:51.553Z,1015.6
2017-01-19T18:32:12.871Z,1015.5
2017-01-19T18:32:34.189Z,1015.6
2017-01-19T18:32:55.516Z,1015.6
2017-01-19T18:33:16.829Z,1015.6
2017-01-19T18:33:38.117Z,1015.6
2017-01-19T18:33:59.422Z,1015.6
2017-01-19T18:34:20.713Z,1015.6
2017-01-19T18:34:42.025Z,1015.6
2017-01-19T18:35:03.690Z,1015.6
2017-01-19T18:35:24.984Z,1015.6
2017-01-19T18:35:46.315Z,1015.6
2017-01-19T18:36:07.615Z,1015.7
2017-01-19T18:36:28.898Z,1015.7
2017-01-19T18:36:50.186Z,1015.7
2017-01-19T18:37:11.512Z,1015.7
2017-01-19T18:37:32.806Z,1015.7
2017-01-19T18:37:54.117Z,1015.7
2017-01-19T18:38:15.432Z,1015.7
2017-01-19T18:38:36.711Z,1015.7
2017-01-19T18:38:58.027Z,1015.7
2017-01-19T18:39:19.319Z,1015.7
2017-01-19T18:39:40.604Z,1015.7
2017-01-19T18:40:01.906Z,1015.7
2017-01-19T18:40:23.200Z,1015.7
2017-01-19T18:40:44.491Z,1015.7
2017-01-19T18:41:05.838Z,1015.7
2017-01-19T18:41:27.117Z,1015.7
2017-01-19T18:41:48.415Z,1015.7
2017-01-19T18:42:09.697Z,1015.7
2017-01-19T18:42:30.996Z,1015.7
2017-01-19T18:42:52.285Z,1015.7
2017-01-19T18:43:13.844Z,1015.7
2017-01-19T18:43:35.131Z,1015.6
2017-01-19T18:43:56.407Z,1015.6
2017-01-19T18:44:17.745Z,1015.6
2017-01-19T18:44:39.046Z,1015.6
2017-01-19T18:45:00.339Z,1015.6
2017-01-19T18:45:21.648Z,1015.6
2017-01-19T18:45:42.931Z,1015.6
2017-01-19T18:46:04.234Z,1015.6
2017-01-19T18:46:25.526Z,1015.6
2017-01-19T18:46:46.816Z,1015.6
2017-01-19T18:47:08.132Z,1015.6
2017-01-19T18:47:29.433Z,1015.7
2017-01-19T18:47:50.748Z,1015.6
2017-01-19T18:48:12.044Z,1015.6
2017-01-19T18:48:33.340Z,1015.6
2017-01-19T18:48:54.629Z,1015.7
2017-01-19T18:49:15.914Z,1015.7
2017-01-19T18:49:37.204Z,1015.7
2017-01-19T18:49:58.486Z,1015.7
2017-01-19T18:50:19.793Z,1015.7
2017-01-19T18:50:41.112Z,1015.7
2017-01-19T18:51:02.381Z,1015.7
2017-01-19T18:51:23.675Z,1015.7
2017-01-19T18:51:44.969Z,1015.7
2017-01-19T18:52:06.275Z,1015.7
2017-01-19T18:52:27.560Z,1015.7
2017-01-19T18:52:48.844Z,1015.7
2017-01-19T18:53:10.158Z,1015.7
2017-01-19T18:53:31.440Z,1015.7
2017-01-19T18:53:52.739Z,1015.7
2017-01-19T18:54:14.018Z,1015.7
2017-01-19T18:54:35.321Z,1015.7
2017-01-19T18:54:56.620Z,1015.7
2017-01-19T18:55:17.904Z,1015.7
2017-01-19T18:55:39.206Z,1015.7
2017-01-19T18:56:00.515Z,1015.7
2017-01-19T18:56:21.859Z,1015.7
2017-01-19T18:56:43.155Z,1015.7
2017-01-19T18:57:04.453Z,1015.7
2017-01-19T18:57:25.750Z,1015.7
2017-01-19T18:57:47.053Z,1015.7
2017-01-19T18:58:08.335Z,1015.7
2017-01-19T18:58:29.627Z,1015.8
2017-01-19T18:58:50.941Z,1015.7
2017-01-19T18:59:12.230Z,1015.7
2017-01-19T18:59:33.533Z,1015.7
2017-01-19T18:59:54.828Z,1015.7
2017-01-19T19:00:16.153Z,1015.7
2017-01-19T19:00:37.493Z,1015.7
2017-01-19T19:00:58.796Z,1015.7
2017-01-19T19:01:20.108Z,1015.7
2017-01-19T19:01:41.422Z,1015.7
2017-01-19T19:02:02.707Z,1015.7
2017-01-19T19:02:24.010Z,1015.7
2017-01-19T19:02:45.307Z,1015.7
2017-01-19T19:03:06.589Z,1015.7
2017-01-19T19:03:27.891Z,1015.7
2017-01-19T19:03:49.197Z,1015.7
2017-01-19T19:04:10.488Z,1015.7
2017-01-19T19:04:31.812Z,1015.7
2017-01-19T19:04:53.101Z,1015.7
2017-01-19T19:05:14.399Z,1015.7
2017-01-19T19:05:35.697Z,1015.7
2017-01-19T19:05:56.999Z,1015.7
2017-01-19T19:06:18.308Z,1015.7
2017-01-19T19:06:39.603Z,1015.7
2017-01-19T19:07:00.913Z,1015.7
2017-01-19T19:07:22.762Z,1015.7
2017-01-19T19:07:44.095Z,1015.8
2017-01-19T19:08:05.382Z,1015.8
2017-01-19T19:08:26.689Z,1015.8
2017-01-19T19:08:47.987Z,1015.8
2017-01-19T19:09:09.316Z,1015.8
2017-01-19T19:09:30.620Z,1015.8
2017-01-19T19:09:51.920Z,1015.8
2017-01-19T19:10:13.231Z,1015.9
2017-01-19T19:10:34.513Z,1015.8
2017-01-19T19:10:55.795Z,1015.8
2017-01-19T19:11:17.088Z,1015.8
2017-01-19T19:11:38.379Z,1015.8
2017-01-19T19:11:59.673Z,1015.8
2017-01-19T19:12:20.953Z,1015.8
2017-01-19T19:12:42.844Z,1015.8
2017-01-19T19:13:04.132Z,1015.8
2017-01-19T19:13:25.439Z,1015.9
2017-01-19T19:13:46.733Z,1015.8
2017-01-19T19:14:08.042Z,1015.8
2017-01-19T19:14:29.335Z,1015.9
2017-01-19T19:14:50.630Z,1015.8
2017-01-19T19:15:11.910Z,1015.8
2017-01-19T19:15:33.212Z,1015.8
2017-01-19T19:15:54.522Z,1015.8
2017-01-19T19:16:15.942Z,1015.8
2017-01-19T19:16:37.254Z,1015.8
2017-01-19T19:16:58.614Z,1015.8
2017-01-19T19:17:19.970Z,1015.8
2017-01-19T19:17:41.379Z,1015.7
2017-01-19T19:18:02.678Z,1015.7
2017-01-19T19:18:24.167Z,1015.8
2017-01-19T19:18:45.477Z,1015.7
2017-01-19T19:19:06.778Z,1015.8
2017-01-19T19:19:28.072Z,1015.7
2017-01-19T19:19:49.354Z,1015.8
2017-01-19T19:20:10.644Z,1015.8
2017-01-19T19:20:31.924Z,1015.7
2017-01-19T19:20:53.223Z,1015.8
2017-01-19T19:21:14.525Z,1015.8
2017-01-19T19:21:35.838Z,1015.8
2017-01-19T19:21:57.134Z,1015.8
2017-01-19T19:22:18.436Z,1015.8
2017-01-19T19:22:39.715Z,1015.8
2017-01-19T19:23:01.006Z,1015.8
2017-01-19T19:23:22.295Z,1015.7
2017-01-19T19:23:43.570Z,1015.7
2017-01-19T19:24:04.861Z,1015.7
2017-01-19T19:24:26.149Z,1015.7
2017-01-19T19:24:47.456Z,1015.7
2017-01-19T19:25:08.764Z,1015.7
2017-01-19T19:25:30.058Z,1015.7
2017-01-19T19:25:51.705Z,1015.6
2017-01-19T19:26:12.984Z,1015.6
2017-01-19T19:26:34.279Z,1015.7
2017-01-19T19:26:55.589Z,1015.7
2017-01-19T19:27:16.878Z,1015.6
2017-01-19T19:27:38.176Z,1015.6
2017-01-19T19:27:59.495Z,1015.6
2017-01-19T19:28:20.775Z,1015.7
2017-01-19T19:28:42.079Z,1015.6
2017-01-19T19:29:03.378Z,1015.7
2017-01-19T19:29:24.707Z,1015.7
2017-01-19T19:29:46.002Z,1015.7
2017-01-19T19:30:07.290Z,1015.7
2017-01-19T19:30:28.583Z,1015.7
2017-01-19T19:30:49.866Z,1015.7
2017-01-19T19:31:11.172Z,1015.7
2017-01-19T19:31:32.468Z,1015.7
2017-01-19T19:31:53.771Z,1015.7
2017-01-19T19:32:15.053Z,1015.7
2017-01-19T19:32:36.357Z,1015.8
2017-01-19T19:32:57.653Z,1015.7
2017-01-19T19:33:18.946Z,1015.8
2017-01-19T19:33:40.251Z,1015.7
2017-01-19T19:34:01.562Z,1015.7
2017-01-19T19:34:22.866Z,1015.7
2017-01-19T19:34:44.183Z,1015.7
2017-01-19T19:35:05.494Z,1015.7
2017-01-19T19:35:26.810Z,1015.7
2017-01-19T19:35:48.111Z,1015.8
2017-01-19T19:36:09.400Z,1015.7
2017-01-19T19:36:30.694Z,1015.7
2017-01-19T19:36:51.990Z,1015.7
2017-01-19T19:37:13.279Z,1015.7
2017-01-19T19:37:34.580Z,1015.7
2017-01-19T19:37:55.869Z,1015.7
2017-01-19T19:38:17.192Z,1015.7
2017-01-19T19:38:38.493Z,1015.7
2017-01-19T19:38:59.829Z,1015.7
2017-01-19T19:39:21.155Z,1015.7
2017-01-19T19:39:42.454Z,1015.7
2017-01-19T19:40:03.744Z,1015.7
2017-01-19T19:40:25.033Z,1015.7
2017-01-19T19:40:46.321Z,1015.7
2017-01-19T19:41:07.616Z,1015.7
2017-01-19T19:41:28.931Z,1015.7
2017-01-19T19:41:50.213Z,1015.7
2017-01-19T19:42:11.524Z,1015.7
2017-01-19T19:42:32.844Z,1015.7
2017-01-19T19:42:54.159Z,1015.7
2017-01-19T19:43:15.449Z,1015.7
2017-01-19T19:43:36.764Z,1015.7
2017-01-19T19:43:58.055Z,1015.6
2017-01-19T19:44:19.492Z,1015.6
2017-01-19T19:44:40.816Z,1015.7
2017-01-19T19:45:02.103Z,1015.7
2017-01-19T19:45:23.397Z,1015.6
2017-01-19T19:45:44.683Z,1015.6
2017-01-19T19:46:05.988Z,1015.7
2017-01-19T19:46:27.277Z,1015.7
2017-01-19T19:46:48.612Z,1015.7
2017-01-19T19:47:09.925Z,1015.7
2017-01-19T19:47:31.228Z,1015.7
2017-01-19T19:47:52.510Z,1015.7
2017-01-19T19:48:13.797Z,1015.8
2017-01-19T19:48:35.121Z,1015.8
2017-01-19T19:48:56.396Z,1015.8
2017-01-19T19:49:17.686Z,1015.8
2017-01-19T19:49:38.980Z,1015.8
2017-01-19T19:50:00.271Z,1015.8
2017-01-19T19:50:21.577Z,1015.8
2017-01-19T19:50:42.850Z,1015.8
2017-01-19T19:51:04.144Z,1015.8
2017-01-19T19:51:25.460Z,1015.8
2017-01-19T19:51:46.940Z,1015.8
2017-01-19T19:52:08.371Z,1015.8
2017-01-19T19:52:29.658Z,1015.8
2017-01-19T19:52:51.166Z,1015.7
2017-01-19T19:53:12.528Z,1015.7
2017-01-19T19:53:33.992Z,1015.8
2017-01-19T19:53:55.458Z,1015.8
2017-01-19T19:54:16.841Z,1015.7
2017-01-19T19:54:38.232Z,1015.7
2017-01-19T19:54:59.546Z,1015.8
2017-01-19T19:55:21.037Z,1015.7
2017-01-19T19:55:42.357Z,1015.8
2017-01-19T19:56:03.662Z,1015.7
2017-01-19T19:56:24.933Z,1015.7
2017-01-19T19:56:46.526Z,1015.7
2017-01-19T19:57:07.813Z,1015.7
2017-01-19T19:57:29.237Z,1015.7
2017-01-19T19:57:50.609Z,1015.7
2017-01-19T19:58:11.886Z,1015.7
2017-01-19T19:58:33.231Z,1015.7
2017-01-19T19:58:54.542Z,1015.7
2017-01-19T19:59:15.999Z,1015.7
2017-01-19T19:59:37.305Z,1015.7
2017-01-19T19:59:58.626Z,1015.7
2017-01-19T20:00:19.918Z,1015.7
2017-01-19T20:00:41.208Z,1015.7
2017-01-19T20:01:02.486Z,1015.8
2017-01-19T20:01:23.851Z,1015.8
2017-01-19T20:01:45.140Z,1015.8
2017-01-19T20:02:06.481Z,1015.8
2017-01-19T20:02:27.780Z,1015.8
2017-01-19T20:02:49.213Z,1015.8
2017-01-19T20:03:10.575Z,1015.8
2017-01-19T20:03:31.969Z,1015.8
2017-01-19T20:03:53.456Z,1015.8
2017-01-19T20:04:14.743Z,1015.8
2017-01-19T20:04:36.148Z,1015.8
2017-01-19T20:04:57.641Z,1015.8
2017-01-19T20:05:19.115Z,1015.8
2017-01-19T20:05:40.403Z,1015.8
2017-01-19T20:06:01.729Z,1015.7
2017-01-19T20:06:23.079Z,1015.7
2017-01-19T20:06:44.538Z,1015.7
2017-01-19T20:07:05.985Z,1015.8
2017-01-19T20:07:27.513Z,1015.7
2017-01-19T20:07:49.027Z,1015.8
2017-01-19T20:08:10.403Z,1015.7
2017-01-19T20:08:31.702Z,1015.7
2017-01-19T20:08:53.067Z,1015.7
2017-01-19T20:09:14.527Z,1015.7
2017-01-19T20:09:35.823Z,1015.7
2017-01-19T20:09:57.104Z,1015.7
2017-01-19T20:10:18.404Z,1015.7
2017-01-19T20:10:39.748Z,1015.6
2017-01-19T20:11:01.054Z,1015.6
2017-01-19T20:11:22.448Z,1015.6
2017-01-19T20:11:43.776Z,1015.7
2017-01-19T20:12:05.058Z,1015.6
2017-01-19T20:12:26.373Z,1015.6
2017-01-19T20:12:47.678Z,1015.6
2017-01-19T20:13:08.989Z,1015.6
2017-01-19T20:13:30.312Z,1015.6
2017-01-19T20:13:51.615Z,1015.6
2017-01-19T20:14:12.933Z,1015.6
2017-01-19T20:14:34.215Z,1015.6
2017-01-19T20:14:55.503Z,1015.6
2017-01-19T20:15:16.803Z,1015.6
2017-01-19T20:15:38.103Z,1015.6
2017-01-19T20:15:59.418Z,1015.6
2017-01-19T20:16:20.693Z,1015.6
2017-01-19T20:16:41.989Z,1015.6
2017-01-19T20:17:03.299Z,1015.6
2017-01-19T20:17:24.575Z,1015.5
2017-01-19T20:17:45.912Z,1015.6
2017-01-19T20:18:07.248Z,1015.6
2017-01-19T20:18:28.545Z,1015.5
2017-01-19T20:18:49.834Z,1015.5
2017-01-19T20:19:11.148Z,1015.5
2017-01-19T20:19:32.459Z,1015.6
2017-01-19T20:19:53.895Z,1015.5
2017-01-19T20:20:15.317Z,1015.5
2017-01-19T20:20:36.642Z,1015.5
2017-01-19T20:20:57.967Z,1015.5
2017-01-19T20:21:19.291Z,1015.5
2017-01-19T20:21:40.718Z,1015.5
2017-01-19T20:22:02.023Z,1015.5
2017-01-19T20:22:23.508Z,1015.6
2017-01-19T20:22:44.917Z,1015.5
2017-01-19T20:23:06.290Z,1015.5
2017-01-19T20:23:27.575Z,1015.5
2017-01-19T20:23:48.872Z,1015.5
2017-01-19T20:24:10.189Z,1015.5
2017-01-19T20:24:31.631Z,1015.5
2017-01-19T20:24:53.089Z,1015.5
2017-01-19T20:25:14.435Z,1015.5
2017-01-19T20:25:35.790Z,1015.5
2017-01-19T20:25:57.124Z,1015.5
2017-01-19T20:26:18.420Z,1015.5
2017-01-19T20:26:39.729Z,1015.5
2017-01-19T20:27:01.067Z,1015.4
2017-01-19T20:27:22.377Z,1015.5
2017-01-19T20:27:45.452Z,1015.5
2017-01-19T20:28:07.287Z,1015.5
2017-01-19T20:28:28.638Z,1015.5
2017-01-19T20:28:49.987Z,1015.5
2017-01-19T20:29:11.291Z,1015.5
2017-01-19T20:29:32.623Z,1015.5
2017-01-19T20:29:53.941Z,1015.5
2017-01-19T20:30:15.237Z,1015.5
2017-01-19T20:30:36.545Z,1015.4
2017-01-19T20:30:57.855Z,1015.4
2017-01-19T20:31:19.161Z,1015.4
2017-01-19T20:31:40.463Z,1015.4
2017-01-19T20:32:01.760Z,1015.4
2017-01-19T20:32:23.062Z,1015.5
2017-01-19T20:32:44.357Z,1015.4
2017-01-19T20:33:05.666Z,1015.5
2017-01-19T20:33:26.959Z,1015.4
2017-01-19T20:33:48.311Z,1015.5
2017-01-19T20:34:09.627Z,1015.4
2017-01-19T20:34:30.941Z,1015.4
2017-01-19T20:34:52.263Z,1015.4
2017-01-19T20:35:13.592Z,1015.4
2017-01-19T20:35:34.898Z,1015.5
2017-01-19T20:35:56.196Z,1015.5
2017-01-19T20:36:17.494Z,1015.4
2017-01-19T20:36:38.792Z,1015.4
2017-01-19T20:37:00.100Z,1015.4
2017-01-19T20:37:21.406Z,1015.4
2017-01-19T20:37:42.728Z,1015.4
2017-01-19T20:38:04.036Z,1015.4
2017-01-19T20:38:25.433Z,1015.4
2017-01-19T20:38:46.781Z,1015.4
2017-01-19T20:39:08.080Z,1015.5
2017-01-19T20:39:29.363Z,1015.4
2017-01-19T20:39:50.679Z,1015.5
2017-01-19T20:40:12.009Z,1015.4
2017-01-19T20:40:33.354Z,1015.4
2017-01-19T20:40:54.659Z,1015.5
2017-01-19T20:41:15.939Z,1015.4
2017-01-19T20:41:37.311Z,1015.4
2017-01-19T20:41:58.608Z,1015.4
2017-01-19T20:42:19.929Z,1015.5
2017-01-19T20:42:41.238Z,1015.4
2017-01-19T20:43:02.557Z,1015.4
2017-01-19T20:43:23.862Z,1015.4
2017-01-19T20:43:45.208Z,1015.4
2017-01-19T20:44:06.529Z,1015.4
2017-01-19T20:44:27.838Z,1015.5
2017-01-19T20:44:49.142Z,1015.5
2017-01-19T20:45:10.433Z,1015.5
2017-01-19T20:45:31.746Z,1015.5
2017-01-19T20:45:53.039Z,1015.4
2017-01-19T20:46:14.408Z,1015.4
2017-01-19T20:46:35.722Z,1015.4
2017-01-19T20:46:57.040Z,1015.4
2017-01-19T20:47:18.378Z,1015.4
2017-01-19T20:47:39.658Z,1015.4
2017-01-19T20:48:00.955Z,1015.4
2017-01-19T20:48:22.322Z,1015.4
2017-01-19T20:48:43.646Z,1015.5
2017-01-19T20:49:04.944Z,1015.5
2017-01-19T20:49:26.268Z,1015.5
2017-01-19T20:49:47.581Z,1015.4
2017-01-19T20:50:08.883Z,1015.5
2017-01-19T20:50:30.192Z,1015.4
2017-01-19T20:50:51.492Z,1015.4
2017-01-19T20:51:12.784Z,1015.4
2017-01-19T20:51:34.133Z,1015.4
2017-01-19T20:51:55.401Z,1015.4
2017-01-19T20:52:16.742Z,1015.4
2017-01-19T20:52:38.068Z,1015.4
2017-01-19T20:52:59.345Z,1015.4
2017-01-19T20:53:20.666Z,1015.4
2017-01-19T20:53:41.960Z,1015.4
2017-01-19T20:54:03.265Z,1015.4
2017-01-19T20:54:24.642Z,1015.5
2017-01-19T20:54:45.953Z,1015.5
2017-01-19T20:55:07.283Z,1015.5
2017-01-19T20:55:28.604Z,1015.5
2017-01-19T20:55:49.942Z,1015.4
2017-01-19T20:56:11.232Z,1015.5
2017-01-19T20:56:32.526Z,1015.5
2017-01-19T20:56:53.818Z,1015.5
2017-01-19T20:57:15.138Z,1015.5
2017-01-19T20:57:36.505Z,1015.5
2017-01-19T20:57:57.803Z,1015.4
2017-01-19T20:58:19.104Z,1015.5
2017-01-19T20:58:40.380Z,1015.4
2017-01-19T20:59:01.730Z,1015.5
2017-01-19T20:59:23.014Z,1015.5
2017-01-19T20:59:44.306Z,1015.5
2017-01-19T21:00:05.615Z,1015.4
2017-01-19T21:00:26.913Z,1015.5
2017-01-19T21:00:48.208Z,1015.4
2017-01-19T21:01:09.540Z,1015.5
2017-01-19T21:01:30.847Z,1015.5
2017-01-19T21:01:52.143Z,1015.5
2017-01-19T21:02:13.449Z,1015.5
2017-01-19T21:02:34.789Z,1015.5
2017-01-19T21:02:56.098Z,1015.5
2017-01-19T21:03:17.422Z,1015.5
2017-01-19T21:03:38.750Z,1015.5
2017-01-19T21:04:00.059Z,1015.5
2017-01-19T21:04:21.414Z,1015.5
2017-01-19T21:04:42.704Z,1015.5
2017-01-19T21:05:03.973Z,1015.5
2017-01-19T21:05:25.310Z,1015.5
2017-01-19T21:05:46.592Z,1015.6
2017-01-19T21:06:07.929Z,1015.5
2017-01-19T21:06:29.258Z,1015.6
2017-01-19T21:06:50.664Z,1015.6
2017-01-19T21:07:12.044Z,1015.7
2017-01-19T21:07:33.386Z,1015.6
2017-01-19T21:07:54.727Z,1015.6
2017-01-19T21:08:16.037Z,1015.6
2017-01-19T21:08:37.370Z,1015.6